Republica Dominicana

Tiempo Significativo

           VUELOS DE BAJO NIVEL DESDE SUPERFICIE HASTA 24,000 PIES.

 

  VALIDO DESDE 021200Z ...…………………….…………………HASTA 030000ZSALIDA  Y  PUESTA  DEL  SOL  06:07 AM/19:19 PM. 

 

SANTO DOMINGO FIR...PORT-AU-PRINCE FIR ISLANDS...SKC. OCNL SCT020. BECMG 1517 SCT015-020. OCNL SCT015-020 SCT060. WDLY SCT SHRA/ISOL TSRA. OTLK...VFR TSRA SHRA.

WTRS...SCT015-025. OCNL SCT020 SCT050. WDLY SCT SHRA. OCNL WND E 20KT. BECMG 1315 SCT015-025. OCNL SKC. OCNL WND E 20KT. OTLK...VFR SHRA WND..

 

5,000 FT.

10,000 FT.

18,000 FT.

24,000 FT.

MDSD

1105KT+20ºC

3105KT+08ºC

0710KT-06ºC

0310KT-17ºC

MTPP

2805KT+19ºC

0105KT+08ºC

0710KT-06ºC

0310KT-17ºC

TJSJ

1105KT+20ºC

3105KT+08ºC

1105KT-06ºC

0105KT-16ºC

 

 

 

TAF 

TAF MDPP 021000Z 0212/0312 09015KT 9999 FEW020=

TAF MDST 021000Z 0212/0312 12010KT 9999 FEW018 TEMPO 0212/0213 5000 BR BKN016 PROB30 0218/0300 6000 RA BKN014 SCT070= 

TAF MDPC 021000Z 0212/0312 13010KT 9999 SCT022 BECMG 0220/0222 07010KT=

TAF MDBH 021000Z 0212/0312 13008KT 9999 FEW018 SCT300 BECMG 0303/0305 00000KT=

TAF MDJB 021000Z 0212/0312 00000KT 9999 FEW018 BECMG 0215/0217 16008KT=

TAF MDSD 021000Z 0212/0312 03004KT 9999 FEW018 BECMG 0214/0216 12006KT=

TAF MDLR 021000Z 0212/0312 00000KT 9999 FEW018 BECMG 0213/0215 12010KT=

TAF MDCY 021000Z 0212/0312 00000KT 9999 FEW018 BECMG 0214/0216 09006KT=

 

TAF KMIA 020858Z 0209/0312 VRB04KT P6SM FEW030 SCT080 FM021800 10009KT P6SM VCTS SCT035CB SCT080 FM030000 10008KT P6SM SCT030 SCT080 FM030200 21003KT P6SM SCT030 SCT080=

 

TAF KJFK 020839Z 0209/0312 26007KT P6SM FEW050 FEW250 FM021500 24010KT P6SM SCT050 BKN200 
FM022000 21010KT P6SM VCTS BKN050CB PROB30 0221/0301 -TSRA OVC035CB FM030100 26007KT P6SM SCT050 BKN100=

 

TAF TJSJ 020522Z 0206/0306 VRB04KT P6SM FEW035 FM021400 06014KT P6SM FEW030 FEW050 FM022300 09007KT P6SM FEW030 FEW050=

 

TAF MUHA 021100Z 0212/0312 VRB03KT 9000 FEW030 BECMG 0216/0218 06010KT SCT030 BECMG 0304/0306 VRB03KT FEW030=

 

TAF MUGM 0207/0307 19006KT 9999 FEW030 BKN280 QNH2992INS BECMG 0216/0218 9999 VCTS FEW030CB SCT100 BKN280 QNH2989INS BECMG 0300/0302 9999 NSW FEW030 SCT300 QNH2985INS T27/0210Z T34/0220Z FN00205=

 

TAF TNCC 021030Z 0212/0312 11014KT 9999 SCT020 TEMPO 0212/0214 BKN015=

 

TAF MKJP 020515Z 0206/0306 36003KT 9999 FEW024 BECMG 0214/0216 15017KT BECMG 0301/0303 36004KT=

 

 

PREPARADO POR: ROBIN RDORIGUEZ 02 de JULIO del 2019.-




Tamaño letra

Contraste

Otros